sensor_id;sensor_type;location;lat;lon;timestamp;temperature;humidity
27707;DHT22;36332;51.384;0.040;2023-05-07T00:02:12;14.60;99.90
27707;DHT22;36332;51.384;0.040;2023-05-07T00:04:40;14.70;99.90
27707;DHT22;36332;51.384;0.040;2023-05-07T00:07:08;14.70;99.90
27707;DHT22;36332;51.384;0.040;2023-05-07T00:09:36;14.60;99.90
27707;DHT22;36332;51.384;0.040;2023-05-07T00:12:03;14.70;99.90
27707;DHT22;36332;51.384;0.040;2023-05-07T00:14:31;14.80;99.90
27707;DHT22;36332;51.384;0.040;2023-05-07T00:16:59;14.80;99.90
27707;DHT22;36332;51.384;0.040;2023-05-07T00:19:27;14.80;99.90
27707;DHT22;36332;51.384;0.040;2023-05-07T00:21:54;14.80;99.90
27707;DHT22;36332;51.384;0.040;2023-05-07T00:24:23;14.70;99.90
27707;DHT22;36332;51.384;0.040;2023-05-07T00:26:51;14.70;99.90
27707;DHT22;36332;51.384;0.040;2023-05-07T00:29:20;14.70;99.90
27707;DHT22;36332;51.384;0.040;2023-05-07T00:31:49;14.70;99.90
27707;DHT22;36332;51.384;0.040;2023-05-07T00:34:18;14.70;99.90
27707;DHT22;36332;51.384;0.040;2023-05-07T00:36:46;14.70;99.90
27707;DHT22;36332;51.384;0.040;2023-05-07T00:39:14;14.60;99.90
27707;DHT22;36332;51.384;0.040;2023-05-07T00:41:42;14.70;99.90
27707;DHT22;36332;51.384;0.040;2023-05-07T00:44:09;14.70;99.90
27707;DHT22;36332;51.384;0.040;2023-05-07T00:46:37;14.60;99.90
27707;DHT22;36332;51.384;0.040;2023-05-07T00:49:05;14.70;99.90
27707;DHT22;36332;51.384;0.040;2023-05-07T00:51:33;14.60;99.90
27707;DHT22;36332;51.384;0.040;2023-05-07T00:54:03;14.50;99.90
27707;DHT22;36332;51.384;0.040;2023-05-07T00:56:31;14.50;99.90
27707;DHT22;36332;51.384;0.040;2023-05-07T00:59:01;15.00;99.90
27707;DHT22;36332;51.384;0.040;2023-05-07T01:01:29;14.50;99.90
27707;DHT22;36332;51.384;0.040;2023-05-07T01:03:57;14.40;99.90
27707;DHT22;36332;51.384;0.040;2023-05-07T01:06:26;14.40;99.90
27707;DHT22;36332;51.384;0.040;2023-05-07T01:08:55;14.40;99.90
27707;DHT22;36332;51.384;0.040;2023-05-07T01:11:25;14.40;99.90
27707;DHT22;36332;51.384;0.040;2023-05-07T01:13:53;14.40;99.90
27707;DHT22;36332;51.384;0.040;2023-05-07T01:16:21;14.40;99.90
27707;DHT22;36332;51.384;0.040;2023-05-07T01:18:50;14.40;99.90
27707;DHT22;36332;51.384;0.040;2023-05-07T01:21:18;14.20;99.90
27707;DHT22;36332;51.384;0.040;2023-05-07T01:23:49;14.20;99.90
27707;DHT22;36332;51.384;0.040;2023-05-07T01:26:17;14.20;99.90
27707;DHT22;36332;51.384;0.040;2023-05-07T01:28:46;14.20;99.90
27707;DHT22;36332;51.384;0.040;2023-05-07T01:31:15;14.10;99.90
27707;DHT22;36332;51.384;0.040;2023-05-07T01:33:44;14.10;99.90
27707;DHT22;36332;51.384;0.040;2023-05-07T01:36:13;14.10;99.90
27707;DHT22;36332;51.384;0.040;2023-05-07T01:38:42;14.10;99.90
27707;DHT22;36332;51.384;0.040;2023-05-07T01:41:09;14.10;99.90
27707;DHT22;36332;51.384;0.040;2023-05-07T01:43:38;14.00;99.90
27707;DHT22;36332;51.384;0.040;2023-05-07T01:46:08;14.00;99.90
27707;DHT22;36332;51.384;0.040;2023-05-07T01:48:37;14.00;99.90
27707;DHT22;36332;51.384;0.040;2023-05-07T01:51:06;14.00;99.90
27707;DHT22;36332;51.384;0.040;2023-05-07T01:53:38;14.00;99.90
27707;DHT22;36332;51.384;0.040;2023-05-07T01:56:07;13.90;99.90
27707;DHT22;36332;51.384;0.040;2023-05-07T01:58:36;13.90;99.90
27707;DHT22;36332;51.384;0.040;2023-05-07T02:01:04;14.00;99.90
27707;DHT22;36332;51.384;0.040;2023-05-07T02:03:31;13.90;99.90
27707;DHT22;36332;51.384;0.040;2023-05-07T02:06:08;13.90;99.90
27707;DHT22;36332;51.384;0.040;2023-05-07T02:08:38;13.90;99.90
27707;DHT22;36332;51.384;0.040;2023-05-07T02:11:06;13.90;99.90
27707;DHT22;36332;51.384;0.040;2023-05-07T02:13:36;13.90;99.90
27707;DHT22;36332;51.384;0.040;2023-05-07T02:16:04;13.90;99.90
27707;DHT22;36332;51.384;0.040;2023-05-07T02:18:32;13.90;99.90
27707;DHT22;36332;51.384;0.040;2023-05-07T02:21:00;13.90;99.90
27707;DHT22;36332;51.384;0.040;2023-05-07T02:23:27;13.90;99.90
27707;DHT22;36332;51.384;0.040;2023-05-07T02:25:55;13.80;99.90
27707;DHT22;36332;51.384;0.040;2023-05-07T02:28:23;13.80;99.90
27707;DHT22;36332;51.384;0.040;2023-05-07T02:30:55;13.80;99.90
27707;DHT22;36332;51.384;0.040;2023-05-07T02:33:26;13.80;99.90
27707;DHT22;36332;51.384;0.040;2023-05-07T02:35:53;13.70;99.90
27707;DHT22;36332;51.384;0.040;2023-05-07T02:38:22;13.70;99.90
27707;DHT22;36332;51.384;0.040;2023-05-07T02:40:49;13.60;99.90
27707;DHT22;36332;51.384;0.040;2023-05-07T02:43:17;13.50;99.90
27707;DHT22;36332;51.384;0.040;2023-05-07T02:45:47;13.50;99.90
27707;DHT22;36332;51.384;0.040;2023-05-07T02:48:15;13.50;99.90
27707;DHT22;36332;51.384;0.040;2023-05-07T02:50:43;13.40;99.90
27707;DHT22;36332;51.384;0.040;2023-05-07T02:53:12;13.50;99.90
27707;DHT22;36332;51.384;0.040;2023-05-07T02:55:39;13.50;99.90
27707;DHT22;36332;51.384;0.040;2023-05-07T02:58:07;13.50;99.90
27707;DHT22;36332;51.384;0.040;2023-05-07T03:00:36;13.40;99.90
27707;DHT22;36332;51.384;0.040;2023-05-07T03:03:14;13.50;99.90
27707;DHT22;36332;51.384;0.040;2023-05-07T03:05:41;13.50;99.90
27707;DHT22;36332;51.384;0.040;2023-05-07T03:08:10;13.50;99.90
27707;DHT22;36332;51.384;0.040;2023-05-07T03:10:38;13.50;99.90
27707;DHT22;36332;51.384;0.040;2023-05-07T03:13:06;13.60;99.90
27707;DHT22;36332;51.384;0.040;2023-05-07T03:15:34;13.50;99.90
27707;DHT22;36332;51.384;0.040;2023-05-07T03:18:02;13.60;99.90
27707;DHT22;36332;51.384;0.040;2023-05-07T03:20:30;13.60;99.90
27707;DHT22;36332;51.384;0.040;2023-05-07T03:22:58;13.60;99.90
27707;DHT22;36332;51.384;0.040;2023-05-07T03:25:25;13.60;99.90
27707;DHT22;36332;51.384;0.040;2023-05-07T03:27:53;13.50;99.90
27707;DHT22;36332;51.384;0.040;2023-05-07T03:30:26;13.50;99.90
27707;DHT22;36332;51.384;0.040;2023-05-07T03:32:54;13.50;99.90
27707;DHT22;36332;51.384;0.040;2023-05-07T03:35:22;13.50;99.90
27707;DHT22;36332;51.384;0.040;2023-05-07T03:37:49;13.50;99.90
27707;DHT22;36332;51.384;0.040;2023-05-07T03:40:18;13.50;99.90
27707;DHT22;36332;51.384;0.040;2023-05-07T03:42:50;13.50;99.90
27707;DHT22;36332;51.384;0.040;2023-05-07T03:45:20;13.50;99.90
27707;DHT22;36332;51.384;0.040;2023-05-07T03:47:57;13.50;99.90
27707;DHT22;36332;51.384;0.040;2023-05-07T03:50:24;13.60;99.90
27707;DHT22;36332;51.384;0.040;2023-05-07T03:52:52;13.50;99.90
27707;DHT22;36332;51.384;0.040;2023-05-07T03:55:21;13.60;99.90
27707;DHT22;36332;51.384;0.040;2023-05-07T03:57:54;13.50;99.90
27707;DHT22;36332;51.384;0.040;2023-05-07T04:00:22;13.50;99.90
27707;DHT22;36332;51.384;0.040;2023-05-07T04:02:50;13.50;99.90
27707;DHT22;36332;51.384;0.040;2023-05-07T04:05:24;13.50;99.90
27707;DHT22;36332;51.384;0.040;2023-05-07T04:07:58;13.50;99.90
27707;DHT22;36332;51.384;0.040;2023-05-07T04:10:32;13.40;99.90
27707;DHT22;36332;51.384;0.040;2023-05-07T04:13:04;13.40;99.90
27707;DHT22;36332;51.384;0.040;2023-05-07T04:15:33;13.40;99.90
27707;DHT22;36332;51.384;0.040;2023-05-07T04:18:00;13.40;99.90
27707;DHT22;36332;51.384;0.040;2023-05-07T04:20:29;13.40;99.90
27707;DHT22;36332;51.384;0.040;2023-05-07T04:23:02;13.40;99.90
27707;DHT22;36332;51.384;0.040;2023-05-07T04:25:30;13.40;99.90
27707;DHT22;36332;51.384;0.040;2023-05-07T04:28:06;13.40;99.90
27707;DHT22;36332;51.384;0.040;2023-05-07T04:30:34;13.40;99.90
27707;DHT22;36332;51.384;0.040;2023-05-07T04:33:04;13.40;99.90
27707;DHT22;36332;51.384;0.040;2023-05-07T04:35:31;13.40;99.90
27707;DHT22;36332;51.384;0.040;2023-05-07T04:38:00;13.40;99.90
27707;DHT22;36332;51.384;0.040;2023-05-07T04:40:29;13.40;99.90
27707;DHT22;36332;51.384;0.040;2023-05-07T04:42:57;13.50;99.90
27707;DHT22;36332;51.384;0.040;2023-05-07T04:45:25;13.30;99.90
27707;DHT22;36332;51.384;0.040;2023-05-07T04:47:54;13.50;99.90
27707;DHT22;36332;51.384;0.040;2023-05-07T04:50:22;13.50;99.90
27707;DHT22;36332;51.384;0.040;2023-05-07T04:52:55;13.50;99.90
27707;DHT22;36332;51.384;0.040;2023-05-07T04:55:24;13.50;99.90
27707;DHT22;36332;51.384;0.040;2023-05-07T04:57:52;13.50;99.90
27707;DHT22;36332;51.384;0.040;2023-05-07T05:00:21;13.50;99.90
27707;DHT22;36332;51.384;0.040;2023-05-07T05:02:50;13.50;99.90
27707;DHT22;36332;51.384;0.040;2023-05-07T05:05:20;13.50;99.90
27707;DHT22;36332;51.384;0.040;2023-05-07T05:07:51;13.50;99.90
27707;DHT22;36332;51.384;0.040;2023-05-07T05:10:20;13.50;99.90
27707;DHT22;36332;51.384;0.040;2023-05-07T05:12:51;13.60;99.90
27707;DHT22;36332;51.384;0.040;2023-05-07T05:15:21;13.60;99.90
27707;DHT22;36332;51.384;0.040;2023-05-07T05:17:49;13.60;99.90
27707;DHT22;36332;51.384;0.040;2023-05-07T05:20:18;13.60;99.90
27707;DHT22;36332;51.384;0.040;2023-05-07T05:22:47;13.60;99.90
27707;DHT22;36332;51.384;0.040;2023-05-07T05:25:14;13.60;99.90
27707;DHT22;36332;51.384;0.040;2023-05-07T05:27:42;13.40;99.90
27707;DHT22;36332;51.384;0.040;2023-05-07T05:30:11;13.60;99.90
27707;DHT22;36332;51.384;0.040;2023-05-07T05:32:41;13.60;99.90
27707;DHT22;36332;51.384;0.040;2023-05-07T05:35:08;13.60;99.90
27707;DHT22;36332;51.384;0.040;2023-05-07T05:37:36;13.60;99.90
27707;DHT22;36332;51.384;0.040;2023-05-07T05:40:06;13.50;99.90
27707;DHT22;36332;51.384;0.040;2023-05-07T05:42:35;13.90;99.90
27707;DHT22;36332;51.384;0.040;2023-05-07T05:45:03;13.40;99.90
27707;DHT22;36332;51.384;0.040;2023-05-07T05:47:32;13.50;99.90
27707;DHT22;36332;51.384;0.040;2023-05-07T05:50:01;13.50;99.90
27707;DHT22;36332;51.384;0.040;2023-05-07T05:52:30;13.60;99.90
27707;DHT22;36332;51.384;0.040;2023-05-07T05:54:58;13.60;99.90
27707;DHT22;36332;51.384;0.040;2023-05-07T05:57:26;13.60;99.90
27707;DHT22;36332;51.384;0.040;2023-05-07T05:59:55;13.60;99.90
27707;DHT22;36332;51.384;0.040;2023-05-07T06:02:24;13.60;99.90
27707;DHT22;36332;51.384;0.040;2023-05-07T06:04:52;13.60;99.90
27707;DHT22;36332;51.384;0.040;2023-05-07T06:07:22;13.60;99.90
27707;DHT22;36332;51.384;0.040;2023-05-07T06:09:50;13.70;99.90
27707;DHT22;36332;51.384;0.040;2023-05-07T06:12:18;13.70;99.90
27707;DHT22;36332;51.384;0.040;2023-05-07T06:14:47;13.70;99.90
27707;DHT22;36332;51.384;0.040;2023-05-07T06:17:16;13.70;99.90
27707;DHT22;36332;51.384;0.040;2023-05-07T06:19:47;13.70;99.90
27707;DHT22;36332;51.384;0.040;2023-05-07T06:22:17;14.40;99.90
27707;DHT22;36332;51.384;0.040;2023-05-07T06:24:45;13.80;99.90
27707;DHT22;36332;51.384;0.040;2023-05-07T06:27:13;13.80;99.90
27707;DHT22;36332;51.384;0.040;2023-05-07T06:29:41;13.80;99.90
27707;DHT22;36332;51.384;0.040;2023-05-07T06:32:14;13.90;99.90
27707;DHT22;36332;51.384;0.040;2023-05-07T06:34:43;13.90;99.90
27707;DHT22;36332;51.384;0.040;2023-05-07T06:37:12;14.00;99.90
27707;DHT22;36332;51.384;0.040;2023-05-07T06:39:52;14.00;99.90
27707;DHT22;36332;51.384;0.040;2023-05-07T06:42:19;14.00;99.90
27707;DHT22;36332;51.384;0.040;2023-05-07T06:44:48;14.00;99.90
27707;DHT22;36332;51.384;0.040;2023-05-07T06:47:18;14.00;99.90
27707;DHT22;36332;51.384;0.040;2023-05-07T06:49:50;14.00;99.90
27707;DHT22;36332;51.384;0.040;2023-05-07T06:52:20;14.10;99.90
27707;DHT22;36332;51.384;0.040;2023-05-07T06:54:50;14.20;99.90
27707;DHT22;36332;51.384;0.040;2023-05-07T06:57:20;14.10;99.90
27707;DHT22;36332;51.384;0.040;2023-05-07T06:59:48;14.10;99.90
27707;DHT22;36332;51.384;0.040;2023-05-07T07:02:16;14.10;99.90
27707;DHT22;36332;51.384;0.040;2023-05-07T07:04:46;14.10;99.90
27707;DHT22;36332;51.384;0.040;2023-05-07T07:07:14;14.20;99.90
27707;DHT22;36332;51.384;0.040;2023-05-07T07:09:44;14.20;99.90
27707;DHT22;36332;51.384;0.040;2023-05-07T07:12:14;14.20;99.90
27707;DHT22;36332;51.384;0.040;2023-05-07T07:14:43;14.30;99.90
27707;DHT22;36332;51.384;0.040;2023-05-07T07:17:12;14.30;99.90
27707;DHT22;36332;51.384;0.040;2023-05-07T07:19:40;14.40;99.90
27707;DHT22;36332;51.384;0.040;2023-05-07T07:22:08;14.40;99.90
27707;DHT22;36332;51.384;0.040;2023-05-07T07:24:36;14.70;99.90
27707;DHT22;36332;51.384;0.040;2023-05-07T07:27:07;12.10;99.90
27707;DHT22;36332;51.384;0.040;2023-05-07T07:29:35;14.50;99.90
27707;DHT22;36332;51.384;0.040;2023-05-07T07:32:03;14.50;99.90
27707;DHT22;36332;51.384;0.040;2023-05-07T07:34:31;14.20;99.90
27707;DHT22;36332;51.384;0.040;2023-05-07T07:37:01;14.50;99.90
27707;DHT22;36332;51.384;0.040;2023-05-07T07:39:33;14.40;99.90
27707;DHT22;36332;51.384;0.040;2023-05-07T07:42:01;14.40;99.90
27707;DHT22;36332;51.384;0.040;2023-05-07T07:44:30;14.40;99.90
27707;DHT22;36332;51.384;0.040;2023-05-07T07:47:04;14.40;99.90
27707;DHT22;36332;51.384;0.040;2023-05-07T07:49:33;14.40;99.90
27707;DHT22;36332;51.384;0.040;2023-05-07T07:52:05;14.40;99.90
27707;DHT22;36332;51.384;0.040;2023-05-07T07:54:36;14.40;99.90
27707;DHT22;36332;51.384;0.040;2023-05-07T07:57:05;14.40;99.90
27707;DHT22;36332;51.384;0.040;2023-05-07T07:59:34;14.40;99.90
27707;DHT22;36332;51.384;0.040;2023-05-07T08:02:01;14.40;99.90
27707;DHT22;36332;51.384;0.040;2023-05-07T08:04:30;14.50;99.90
27707;DHT22;36332;51.384;0.040;2023-05-07T08:07:04;14.50;99.90
27707;DHT22;36332;51.384;0.040;2023-05-07T08:09:35;14.50;99.90
27707;DHT22;36332;51.384;0.040;2023-05-07T08:12:05;14.60;99.90
27707;DHT22;36332;51.384;0.040;2023-05-07T08:14:34;14.60;99.90
27707;DHT22;36332;51.384;0.040;2023-05-07T08:17:05;14.60;99.90
27707;DHT22;36332;51.384;0.040;2023-05-07T08:19:34;14.70;99.90
27707;DHT22;36332;51.384;0.040;2023-05-07T08:22:03;14.80;99.90
27707;DHT22;36332;51.384;0.040;2023-05-07T08:24:34;14.80;99.90
27707;DHT22;36332;51.384;0.040;2023-05-07T08:27:02;14.90;99.90
27707;DHT22;36332;51.384;0.040;2023-05-07T08:29:30;15.00;99.90
27707;DHT22;36332;51.384;0.040;2023-05-07T08:31:57;15.10;99.90
27707;DHT22;36332;51.384;0.040;2023-05-07T08:34:25;15.10;99.90
27707;DHT22;36332;51.384;0.040;2023-05-07T08:36:55;15.20;99.90
27707;DHT22;36332;51.384;0.040;2023-05-07T08:39:24;15.30;99.90
27707;DHT22;36332;51.384;0.040;2023-05-07T08:41:55;15.40;99.90
27707;DHT22;36332;51.384;0.040;2023-05-07T08:44:28;15.50;99.90
27707;DHT22;36332;51.384;0.040;2023-05-07T08:47:01;15.50;99.90
27707;DHT22;36332;51.384;0.040;2023-05-07T08:49:30;15.60;99.90
27707;DHT22;36332;51.384;0.040;2023-05-07T08:51:59;15.60;99.90
27707;DHT22;36332;51.384;0.040;2023-05-07T08:54:28;15.70;99.90
27707;DHT22;36332;51.384;0.040;2023-05-07T08:56:57;15.70;99.90
27707;DHT22;36332;51.384;0.040;2023-05-07T08:59:25;15.80;99.90
27707;DHT22;36332;51.384;0.040;2023-05-07T09:01:53;15.80;99.90
27707;DHT22;36332;51.384;0.040;2023-05-07T09:04:21;15.80;99.90
27707;DHT22;36332;51.384;0.040;2023-05-07T09:06:49;15.90;99.90
27707;DHT22;36332;51.384;0.040;2023-05-07T09:09:21;15.90;99.90
27707;DHT22;36332;51.384;0.040;2023-05-07T09:11:57;15.90;99.90
27707;DHT22;36332;51.384;0.040;2023-05-07T09:14:28;16.00;99.90
27707;DHT22;36332;51.384;0.040;2023-05-07T09:16:57;16.20;99.90
27707;DHT22;36332;51.384;0.040;2023-05-07T09:19:26;16.20;99.90
27707;DHT22;36332;51.384;0.040;2023-05-07T09:22:02;16.40;99.90
27707;DHT22;36332;51.384;0.040;2023-05-07T09:24:38;16.50;99.90
27707;DHT22;36332;51.384;0.040;2023-05-07T09:27:10;16.80;99.90
27707;DHT22;36332;51.384;0.040;2023-05-07T09:29:43;17.10;99.90
27707;DHT22;36332;51.384;0.040;2023-05-07T09:32:11;17.40;99.90
27707;DHT22;36332;51.384;0.040;2023-05-07T09:34:41;17.60;99.90
27707;DHT22;36332;51.384;0.040;2023-05-07T09:37:10;17.90;99.90
27707;DHT22;36332;51.384;0.040;2023-05-07T09:39:45;18.10;99.90
27707;DHT22;36332;51.384;0.040;2023-05-07T09:42:15;18.20;99.90
27707;DHT22;36332;51.384;0.040;2023-05-07T09:44:44;18.60;99.90
27707;DHT22;36332;51.384;0.040;2023-05-07T09:47:19;18.90;99.90
27707;DHT22;36332;51.384;0.040;2023-05-07T09:49:56;19.10;99.90
27707;DHT22;36332;51.384;0.040;2023-05-07T09:52:25;19.20;99.90
27707;DHT22;36332;51.384;0.040;2023-05-07T09:54:57;19.40;99.90
27707;DHT22;36332;51.384;0.040;2023-05-07T09:57:29;19.50;99.90
27707;DHT22;36332;51.384;0.040;2023-05-07T10:00:03;19.50;99.90
27707;DHT22;36332;51.384;0.040;2023-05-07T10:02:49;19.50;99.90
27707;DHT22;36332;51.384;0.040;2023-05-07T10:05:25;19.50;99.90
27707;DHT22;36332;51.384;0.040;2023-05-07T10:07:56;19.40;99.90
27707;DHT22;36332;51.384;0.040;2023-05-07T10:10:26;19.20;99.90
27707;DHT22;36332;51.384;0.040;2023-05-07T10:12:55;19.10;99.90
27707;DHT22;36332;51.384;0.040;2023-05-07T10:15:29;19.00;99.90
27707;DHT22;36332;51.384;0.040;2023-05-07T10:17:59;18.90;99.90
27707;DHT22;36332;51.384;0.040;2023-05-07T10:20:28;18.90;99.90
27707;DHT22;36332;51.384;0.040;2023-05-07T10:22:57;18.90;99.90
27707;DHT22;36332;51.384;0.040;2023-05-07T10:25:34;18.90;99.90
27707;DHT22;36332;51.384;0.040;2023-05-07T10:28:10;18.80;99.90
27707;DHT22;36332;51.384;0.040;2023-05-07T10:33:36;18.70;99.90
27707;DHT22;36332;51.384;0.040;2023-05-07T10:36:05;18.80;99.90
27707;DHT22;36332;51.384;0.040;2023-05-07T10:38:35;18.80;99.90
27707;DHT22;36332;51.384;0.040;2023-05-07T10:41:03;18.90;99.90
27707;DHT22;36332;51.384;0.040;2023-05-07T10:43:41;18.90;99.90
27707;DHT22;36332;51.384;0.040;2023-05-07T10:46:18;18.80;99.90
27707;DHT22;36332;51.384;0.040;2023-05-07T10:51:38;18.70;99.90
27707;DHT22;36332;51.384;0.040;2023-05-07T10:54:35;18.70;99.90
27707;DHT22;36332;51.384;0.040;2023-05-07T11:03:09;18.70;99.90
27707;DHT22;36332;51.384;0.040;2023-05-07T11:06:12;18.70;99.90
27707;DHT22;36332;51.384;0.040;2023-05-07T11:08:55;18.80;99.90
27707;DHT22;36332;51.384;0.040;2023-05-07T11:11:48;18.90;99.90
27707;DHT22;36332;51.384;0.040;2023-05-07T11:17:17;19.00;99.90
27707;DHT22;36332;51.384;0.040;2023-05-07T11:22:55;19.30;99.90
27707;DHT22;36332;51.384;0.040;2023-05-07T11:25:32;19.60;99.90
27707;DHT22;36332;51.384;0.040;2023-05-07T11:28:11;19.70;99.90
27707;DHT22;36332;51.384;0.040;2023-05-07T11:30:57;19.80;99.90
27707;DHT22;36332;51.384;0.040;2023-05-07T11:33:26;19.80;99.90
27707;DHT22;36332;51.384;0.040;2023-05-07T11:35:56;19.70;99.90
27707;DHT22;36332;51.384;0.040;2023-05-07T11:38:33;19.60;99.90
27707;DHT22;36332;51.384;0.040;2023-05-07T11:41:03;19.60;99.90
27707;DHT22;36332;51.384;0.040;2023-05-07T11:43:32;19.70;99.90
27707;DHT22;36332;51.384;0.040;2023-05-07T11:46:11;19.90;99.90
27707;DHT22;36332;51.384;0.040;2023-05-07T11:48:39;19.70;99.90
27707;DHT22;36332;51.384;0.040;2023-05-07T11:51:08;19.70;99.90
27707;DHT22;36332;51.384;0.040;2023-05-07T11:53:38;19.70;99.90
27707;DHT22;36332;51.384;0.040;2023-05-07T11:56:11;19.60;99.90
27707;DHT22;36332;51.384;0.040;2023-05-07T11:58:41;19.60;99.90
27707;DHT22;36332;51.384;0.040;2023-05-07T12:01:10;19.50;99.90
27707;DHT22;36332;51.384;0.040;2023-05-07T12:03:40;19.50;99.90
27707;DHT22;36332;51.384;0.040;2023-05-07T12:06:16;19.40;99.90
27707;DHT22;36332;51.384;0.040;2023-05-07T12:08:45;19.40;99.90
27707;DHT22;36332;51.384;0.040;2023-05-07T12:11:22;19.50;99.90
27707;DHT22;36332;51.384;0.040;2023-05-07T12:13:50;19.50;99.90
27707;DHT22;36332;51.384;0.040;2023-05-07T12:16:19;19.60;99.90
27707;DHT22;36332;51.384;0.040;2023-05-07T12:18:47;19.80;99.90
27707;DHT22;36332;51.384;0.040;2023-05-07T12:21:15;20.00;99.90
27707;DHT22;36332;51.384;0.040;2023-05-07T12:23:45;20.10;99.90
27707;DHT22;36332;51.384;0.040;2023-05-07T12:26:12;20.10;99.90
27707;DHT22;36332;51.384;0.040;2023-05-07T12:28:41;20.00;99.90
27707;DHT22;36332;51.384;0.040;2023-05-07T12:31:08;20.00;99.90
27707;DHT22;36332;51.384;0.040;2023-05-07T12:33:36;20.10;99.90
27707;DHT22;36332;51.384;0.040;2023-05-07T12:36:06;20.30;99.90
27707;DHT22;36332;51.384;0.040;2023-05-07T12:38:38;20.60;99.90
27707;DHT22;36332;51.384;0.040;2023-05-07T12:41:07;20.80;99.90
27707;DHT22;36332;51.384;0.040;2023-05-07T12:43:36;21.00;99.90
27707;DHT22;36332;51.384;0.040;2023-05-07T12:46:05;21.00;99.90
27707;DHT22;36332;51.384;0.040;2023-05-07T12:48:35;21.00;99.90
27707;DHT22;36332;51.384;0.040;2023-05-07T12:51:05;20.90;99.90
27707;DHT22;36332;51.384;0.040;2023-05-07T12:53:33;20.90;99.90
27707;DHT22;36332;51.384;0.040;2023-05-07T12:56:06;20.80;99.90
27707;DHT22;36332;51.384;0.040;2023-05-07T12:58:35;20.80;99.90
27707;DHT22;36332;51.384;0.040;2023-05-07T13:01:07;20.90;99.90
27707;DHT22;36332;51.384;0.040;2023-05-07T13:03:38;21.10;99.90
27707;DHT22;36332;51.384;0.040;2023-05-07T13:06:10;21.20;99.90
27707;DHT22;36332;51.384;0.040;2023-05-07T13:08:40;21.30;99.90
27707;DHT22;36332;51.384;0.040;2023-05-07T13:11:11;21.40;99.90
27707;DHT22;36332;51.384;0.040;2023-05-07T13:13:40;21.40;99.90
27707;DHT22;36332;51.384;0.040;2023-05-07T13:16:10;21.40;99.90
27707;DHT22;36332;51.384;0.040;2023-05-07T13:18:39;21.20;99.90
27707;DHT22;36332;51.384;0.040;2023-05-07T13:21:07;21.10;99.90
27707;DHT22;36332;51.384;0.040;2023-05-07T13:23:35;21.10;99.90
27707;DHT22;36332;51.384;0.040;2023-05-07T13:26:03;21.10;99.90
27707;DHT22;36332;51.384;0.040;2023-05-07T13:28:52;21.10;99.90
27707;DHT22;36332;51.384;0.040;2023-05-07T13:31:20;21.40;99.90
27707;DHT22;36332;51.384;0.040;2023-05-07T13:33:48;21.70;99.90
27707;DHT22;36332;51.384;0.040;2023-05-07T13:36:16;21.90;99.90
27707;DHT22;36332;51.384;0.040;2023-05-07T13:38:43;21.80;99.90
27707;DHT22;36332;51.384;0.040;2023-05-07T13:41:11;21.80;99.90
27707;DHT22;36332;51.384;0.040;2023-05-07T13:43:40;21.80;99.90
27707;DHT22;36332;51.384;0.040;2023-05-07T13:46:08;21.60;99.90
27707;DHT22;36332;51.384;0.040;2023-05-07T13:48:37;21.40;99.90
27707;DHT22;36332;51.384;0.040;2023-05-07T13:51:05;21.40;99.90
27707;DHT22;36332;51.384;0.040;2023-05-07T13:53:33;21.50;99.90
27707;DHT22;36332;51.384;0.040;2023-05-07T13:56:01;21.90;99.90
27707;DHT22;36332;51.384;0.040;2023-05-07T13:58:32;22.20;99.90
27707;DHT22;36332;51.384;0.040;2023-05-07T14:01:00;22.20;99.90
27707;DHT22;36332;51.384;0.040;2023-05-07T14:03:27;22.30;99.90
27707;DHT22;36332;51.384;0.040;2023-05-07T14:05:55;22.50;99.90
27707;DHT22;36332;51.384;0.040;2023-05-07T14:08:25;22.70;99.90
27707;DHT22;36332;51.384;0.040;2023-05-07T14:10:53;22.90;99.90
27707;DHT22;36332;51.384;0.040;2023-05-07T14:13:20;23.30;99.90
27707;DHT22;36332;51.384;0.040;2023-05-07T14:15:48;23.60;99.90
27707;DHT22;36332;51.384;0.040;2023-05-07T14:18:16;23.80;99.90
27707;DHT22;36332;51.384;0.040;2023-05-07T14:20:44;24.00;99.90
27707;DHT22;36332;51.384;0.040;2023-05-07T14:23:14;24.00;99.90
27707;DHT22;36332;51.384;0.040;2023-05-07T14:25:41;23.70;99.90
27707;DHT22;36332;51.384;0.040;2023-05-07T14:28:10;23.30;99.90
27707;DHT22;36332;51.384;0.040;2023-05-07T14:30:38;22.90;99.90
27707;DHT22;36332;51.384;0.040;2023-05-07T14:33:06;22.80;99.90
27707;DHT22;36332;51.384;0.040;2023-05-07T14:35:34;23.20;99.90
27707;DHT22;36332;51.384;0.040;2023-05-07T14:38:02;23.50;99.90
27707;DHT22;36332;51.384;0.040;2023-05-07T14:40:29;24.10;99.90
27707;DHT22;36332;51.384;0.040;2023-05-07T14:47:53;25.60;99.90
27707;DHT22;36332;51.384;0.040;2023-05-07T14:50:21;25.90;99.90
27707;DHT22;36332;51.384;0.040;2023-05-07T14:52:49;26.10;99.90
27707;DHT22;36332;51.384;0.040;2023-05-07T14:55:16;26.40;99.90
27707;DHT22;36332;51.384;0.040;2023-05-07T14:57:44;26.90;99.90
27707;DHT22;36332;51.384;0.040;2023-05-07T15:00:12;27.80;99.90
27707;DHT22;36332;51.384;0.040;2023-05-07T15:02:40;28.00;99.90
27707;DHT22;36332;51.384;0.040;2023-05-07T15:05:08;28.60;99.90
27707;DHT22;36332;51.384;0.040;2023-05-07T15:07:36;29.10;99.90
27707;DHT22;36332;51.384;0.040;2023-05-07T15:10:05;29.40;99.90
27707;DHT22;36332;51.384;0.040;2023-05-07T15:12:32;29.50;99.90
27707;DHT22;36332;51.384;0.040;2023-05-07T15:15:00;29.70;99.90
27707;DHT22;36332;51.384;0.040;2023-05-07T15:17:28;29.70;99.90
27707;DHT22;36332;51.384;0.040;2023-05-07T15:19:56;29.50;99.50
27707;DHT22;36332;51.384;0.040;2023-05-07T15:22:23;29.40;99.10
27707;DHT22;36332;51.384;0.040;2023-05-07T15:24:51;29.40;99.60
27707;DHT22;36332;51.384;0.040;2023-05-07T15:27:19;29.70;98.40
27707;DHT22;36332;51.384;0.040;2023-05-07T15:29:46;29.90;96.60
27707;DHT22;36332;51.384;0.040;2023-05-07T15:32:14;29.80;95.80
27707;DHT22;36332;51.384;0.040;2023-05-07T15:34:42;30.00;95.40
27707;DHT22;36332;51.384;0.040;2023-05-07T15:37:10;30.30;94.80
27707;DHT22;36332;51.384;0.040;2023-05-07T15:39:38;30.90;92.90
27707;DHT22;36332;51.384;0.040;2023-05-07T16:01:51;31.00;99.90
27707;DHT22;36332;51.384;0.040;2023-05-07T16:04:19;31.50;87.00
27707;DHT22;36332;51.384;0.040;2023-05-07T16:06:47;30.90;86.30
27707;DHT22;36332;51.384;0.040;2023-05-07T16:09:15;30.80;85.90
27707;DHT22;36332;51.384;0.040;2023-05-07T16:11:43;30.60;84.40
27707;DHT22;36332;51.384;0.040;2023-05-07T16:14:11;30.20;84.60
27707;DHT22;36332;51.384;0.040;2023-05-07T16:16:38;30.20;93.60
27707;DHT22;36332;51.384;0.040;2023-05-07T16:19:07;30.60;94.00
27707;DHT22;36332;51.384;0.040;2023-05-07T16:21:35;30.50;94.70
27707;DHT22;36332;51.384;0.040;2023-05-07T16:24:03;30.90;94.40
27707;DHT22;36332;51.384;0.040;2023-05-07T16:26:30;31.10;93.60
27707;DHT22;36332;51.384;0.040;2023-05-07T16:28:59;31.30;90.80